createdAt,value
2018-05-06T19:28:33.691Z,102020.45
2018-05-06T19:31:01.215Z,102026.58
2018-05-06T19:33:28.728Z,102017.97
2018-05-06T19:35:56.272Z,102022.22
2018-05-06T19:38:23.782Z,102021.68
2018-05-06T19:40:51.338Z,102030.38
2018-05-06T19:43:18.848Z,102028.19
2018-05-06T19:45:46.321Z,102027.94
2018-05-06T19:48:13.852Z,102033.10
2018-05-06T19:50:41.384Z,102034.70
2018-05-06T19:53:08.917Z,102032.41
2018-05-06T19:55:36.423Z,102023.67
2018-05-06T19:58:03.928Z,102037.41
2018-05-06T20:00:31.429Z,102030.83
2018-05-06T20:02:58.976Z,102034.42
2018-05-06T20:05:26.478Z,102032.89
2018-05-06T20:07:54.004Z,102036.17
2018-05-06T20:10:21.526Z,102035.84
2018-05-06T20:12:49.070Z,102033.81
2018-05-06T20:15:16.541Z,102032.44
2018-05-06T20:17:44.015Z,102032.59
2018-05-06T20:20:11.588Z,102035.19
2018-05-06T20:22:39.060Z,102029.34
2018-05-06T20:25:06.579Z,102026.18
2018-05-06T20:27:34.053Z,102031.73
2018-05-06T20:30:01.567Z,102027.38
2018-05-06T20:32:29.113Z,102028.49
2018-05-06T20:34:56.600Z,102026.66
2018-05-06T20:37:24.137Z,102022.97
2018-05-06T20:39:51.708Z,102027.36
2018-05-06T20:42:19.205Z,102029.89
2018-05-06T20:44:46.810Z,102029.27
2018-05-06T20:47:14.287Z,102031.08
2018-05-06T20:49:42.251Z,102032.75
2018-05-06T20:52:09.731Z,102032.09
2018-05-06T20:54:37.208Z,102029.25
2018-05-06T20:57:04.941Z,102030.80
2018-05-06T20:59:32.418Z,102027.67
2018-05-06T21:02:00.515Z,102028.44
2018-05-06T21:04:28.040Z,102029.02
2018-05-06T21:06:55.538Z,102028.01
2018-05-06T21:09:23.755Z,102028.08
2018-05-06T21:11:51.232Z,102026.01
2018-05-06T21:14:18.718Z,102022.73
2018-05-06T21:16:46.232Z,102025.64
2018-05-06T21:19:13.732Z,102028.66
2018-05-06T21:21:41.636Z,102028.69
2018-05-06T21:24:09.142Z,102030.77
2018-05-06T21:26:36.609Z,102032.80
2018-05-06T21:29:04.104Z,102029.32
2018-05-06T21:31:31.590Z,102033.80
2018-05-06T21:33:59.207Z,102032.45
2018-05-06T21:36:26.708Z,102030.30
2018-05-06T21:38:54.189Z,102029.77
2018-05-06T21:41:21.685Z,102037.05
2018-05-06T21:43:49.238Z,102035.02
2018-05-06T21:46:16.766Z,102033.98
2018-05-06T21:48:44.244Z,102032.43
2018-05-06T21:51:11.811Z,102035.12
2018-05-06T21:53:39.325Z,102029.98
2018-05-06T21:56:06.803Z,102033.45
2018-05-06T21:58:41.191Z,102034.74
2018-05-06T22:01:12.256Z,102033.30
2018-05-06T22:03:39.787Z,102030.19
2018-05-06T22:06:07.337Z,102037.45
2018-05-06T22:08:34.855Z,102035.84
2018-05-06T22:11:02.348Z,102041.42
2018-05-06T22:13:29.853Z,102039.61
2018-05-06T22:15:57.456Z,102038.08
2018-05-06T22:18:24.954Z,102029.97
2018-05-06T22:20:52.499Z,102029.06
2018-05-06T22:23:20.032Z,102027.25
2018-05-06T22:25:48.657Z,102022.21
2018-05-06T22:28:17.376Z,102026.77
2018-05-06T22:30:47.780Z,102028.02
2018-05-06T22:33:15.570Z,102025.97
2018-05-06T22:35:44.043Z,102029.68
2018-05-06T22:38:12.224Z,102026.59
2018-05-06T22:40:39.873Z,102016.54
2018-05-06T22:43:17.228Z,102019.78
2018-05-06T22:45:46.354Z,102015.80
2018-05-06T22:48:15.678Z,102018.53
2018-05-06T22:50:43.180Z,102016.41
2018-05-06T22:53:10.702Z,102012.95
2018-05-06T22:55:38.196Z,102010.08
2018-05-06T22:58:05.716Z,102008.84
2018-05-06T23:00:33.240Z,102010.50
2018-05-06T23:03:00.739Z,102011.84
2018-05-06T23:05:28.304Z,102008.58
2018-05-06T23:07:55.763Z,102007.26
2018-05-06T23:10:23.314Z,102007.28
2018-05-06T23:12:50.825Z,102011.52
2018-05-06T23:15:18.345Z,102004.48
2018-05-06T23:17:45.873Z,102007.17
2018-05-06T23:20:13.384Z,102009.77
2018-05-06T23:22:40.912Z,102011.39
2018-05-06T23:25:08.441Z,102004.13
2018-05-06T23:27:35.926Z,102008.77
2018-05-06T23:30:03.468Z,102006.99
2018-05-06T23:32:32.169Z,102006.37
2018-05-06T23:34:59.672Z,102001.62
2018-05-06T23:37:30.651Z,102005.86
2018-05-06T23:39:58.181Z,102004.92
2018-05-06T23:42:25.683Z,102013.51
2018-05-06T23:44:53.275Z,102010.50
2018-05-06T23:47:20.788Z,102008.92
2018-05-06T23:49:48.307Z,102003.98
2018-05-06T23:52:15.817Z,102007.23
2018-05-06T23:54:43.451Z,102011.12
2018-05-06T23:57:10.912Z,102010.64
2018-05-06T23:59:38.436Z,102014.20
